createdAt,value
2022-11-23T00:01:26.908Z,6.30
2022-11-23T00:03:57.154Z,6.27
2022-11-23T00:06:26.340Z,5.98
2022-11-23T00:08:54.645Z,6.20
2022-11-23T00:11:23.614Z,6.32
2022-11-23T00:13:51.102Z,6.07
2022-11-23T00:16:21.462Z,6.23
2022-11-23T00:18:51.396Z,6.26
2022-11-23T00:21:18.801Z,6.27
2022-11-23T00:23:46.259Z,6.36
2022-11-23T00:26:14.491Z,6.24
2022-11-23T00:28:42.192Z,6.31
2022-11-23T00:31:11.258Z,6.32
2022-11-23T00:33:39.818Z,6.32
2022-11-23T00:36:11.541Z,6.46
2022-11-23T00:38:39.673Z,6.31
2022-11-23T00:41:16.068Z,6.43
2022-11-23T00:43:43.962Z,6.13
2022-11-23T00:46:26.393Z,6.20
2022-11-23T00:48:55.906Z,6.12
2022-11-23T00:51:26.242Z,6.15
2022-11-23T00:53:54.155Z,6.04
2022-11-23T00:56:22.055Z,5.88
2022-11-23T00:58:50.715Z,6.19
2022-11-23T01:01:20.463Z,6.04
2022-11-23T01:03:50.839Z,6.27
2022-11-23T01:06:21.102Z,6.02
2022-11-23T01:08:56.007Z,6.11
2022-11-23T01:11:26.519Z,6.21
2022-11-23T01:13:55.003Z,6.29
2022-11-23T01:16:29.110Z,6.11
2022-11-23T01:18:58.113Z,6.01
2022-11-23T01:21:26.595Z,6.06
2022-11-23T01:23:54.739Z,6.20
2022-11-23T01:26:23.328Z,5.94
2022-11-23T01:28:51.219Z,6.09
2022-11-23T01:31:21.664Z,6.07
2022-11-23T01:33:54.376Z,6.17
2022-11-23T01:36:24.655Z,6.28
2022-11-23T01:38:52.413Z,5.98
2022-11-23T01:41:25.422Z,6.26
2022-11-23T01:43:53.494Z,6.04
2022-11-23T01:46:21.459Z,6.38
2022-11-23T01:48:59.905Z,6.31
2022-11-23T01:51:39.338Z,6.21
2022-11-23T01:54:10.695Z,6.23
2022-11-23T01:56:42.114Z,6.20
2022-11-23T01:59:14.045Z,6.35
2022-11-23T02:01:41.433Z,6.24
2022-11-23T02:04:14.617Z,6.28
2022-11-23T02:06:47.742Z,6.10
2022-11-23T02:09:16.500Z,6.13
2022-11-23T02:11:43.905Z,6.02
2022-11-23T02:14:17.862Z,5.89
2022-11-23T02:16:49.308Z,6.18
2022-11-23T02:19:40.959Z,6.15
2022-11-23T02:22:16.114Z,5.99
2022-11-23T02:24:49.345Z,5.92
2022-11-23T02:27:17.377Z,6.07
2022-11-23T02:29:44.712Z,6.15
2022-11-23T02:32:12.034Z,6.19
2022-11-23T02:34:39.371Z,6.00
2022-11-23T02:37:06.758Z,5.98
2022-11-23T02:39:40.442Z,6.18
2022-11-23T02:42:09.301Z,6.17
2022-11-23T02:44:51.173Z,6.12
2022-11-23T02:47:18.562Z,6.05
2022-11-23T02:49:47.673Z,6.19
2022-11-23T02:52:15.626Z,6.27
2022-11-23T02:54:42.925Z,5.93
2022-11-23T02:57:10.555Z,6.03
2022-11-23T02:59:39.665Z,5.98
2022-11-23T03:02:07.463Z,6.06
2022-11-23T03:04:36.015Z,6.24
2022-11-23T03:07:03.309Z,6.38
2022-11-23T03:09:31.352Z,6.09
2022-11-23T03:11:59.500Z,6.17
2022-11-23T03:14:28.780Z,6.34
2022-11-23T03:16:59.957Z,6.11
2022-11-23T03:19:31.366Z,5.74
2022-11-23T03:21:58.969Z,6.00
2022-11-23T03:24:26.321Z,5.99
2022-11-23T03:26:54.874Z,5.78
2022-11-23T03:29:26.494Z,6.23
2022-11-23T03:31:55.781Z,6.21
2022-11-23T03:34:23.789Z,6.27
2022-11-23T03:36:51.800Z,6.16
2022-11-23T03:39:20.126Z,6.20
2022-11-23T03:42:22.474Z,6.11
2022-11-23T03:44:50.565Z,6.08
2022-11-23T03:47:17.908Z,6.05
2022-11-23T03:49:45.833Z,6.13
2022-11-23T03:52:13.236Z,6.18
2022-11-23T03:54:42.643Z,6.06
2022-11-23T03:57:09.992Z,6.34
2022-11-23T03:59:37.970Z,6.25
2022-11-23T04:02:06.155Z,5.90
2022-11-23T04:04:37.647Z,6.14
2022-11-23T04:07:12.396Z,6.18
2022-11-23T04:09:45.923Z,6.33
2022-11-23T04:12:31.835Z,6.32
2022-11-23T04:14:59.337Z,6.24
2022-11-23T04:17:26.630Z,6.13
2022-11-23T04:19:53.933Z,6.20
2022-11-23T04:22:21.345Z,6.25
2022-11-23T04:24:48.796Z,5.76
2022-11-23T04:27:16.557Z,6.25
2022-11-23T04:29:43.992Z,6.18
2022-11-23T04:32:11.344Z,5.94
2022-11-23T04:34:39.988Z,5.98
2022-11-23T04:37:13.049Z,6.29
2022-11-23T04:39:42.303Z,6.30
2022-11-23T04:42:32.610Z,6.27
2022-11-23T04:45:02.064Z,6.37
2022-11-23T04:47:30.770Z,6.37
2022-11-23T04:50:01.771Z,6.20
2022-11-23T04:52:30.389Z,6.31
2022-11-23T04:54:58.519Z,6.25
2022-11-23T04:57:25.813Z,6.23
2022-11-23T04:59:53.364Z,5.94
2022-11-23T05:02:22.089Z,5.85
2022-11-23T05:04:54.506Z,6.15
2022-11-23T05:07:26.659Z,6.07
2022-11-23T05:09:58.321Z,6.14
2022-11-23T05:12:26.545Z,5.95
2022-11-23T05:14:53.947Z,6.16
2022-11-23T05:17:26.118Z,6.15
2022-11-23T05:19:56.183Z,6.32
2022-11-23T05:22:24.079Z,6.43
2022-11-23T05:24:51.414Z,6.37
2022-11-23T05:27:21.903Z,6.21
2022-11-23T05:29:50.479Z,6.21
2022-11-23T05:32:17.963Z,6.32
2022-11-23T05:34:45.307Z,6.34
2022-11-23T05:37:15.508Z,6.19
2022-11-23T05:39:51.506Z,6.02
2022-11-23T05:42:19.869Z,6.36
2022-11-23T05:44:48.376Z,6.35
2022-11-23T05:47:22.035Z,6.13
2022-11-23T05:49:50.542Z,6.39
2022-11-23T05:52:21.614Z,6.30
2022-11-23T05:54:52.093Z,6.37
2022-11-23T05:57:22.486Z,6.25
2022-11-23T05:59:51.079Z,6.05
2022-11-23T06:02:22.846Z,6.38
2022-11-23T06:04:54.695Z,6.06
2022-11-23T06:07:29.371Z,6.13
2022-11-23T06:10:06.080Z,6.24
2022-11-23T06:12:35.374Z,6.30
2022-11-23T06:15:06.937Z,6.31
2022-11-23T06:17:35.877Z,6.21
2022-11-23T06:20:07.088Z,6.36
2022-11-23T06:22:36.739Z,6.15
2022-11-23T06:25:06.742Z,6.38
2022-11-23T06:27:57.704Z,6.19
2022-11-23T06:30:30.729Z,6.50
2022-11-23T06:33:04.979Z,6.44
2022-11-23T06:35:38.102Z,6.38
2022-11-23T06:38:05.472Z,6.33
2022-11-23T06:40:33.627Z,6.47
2022-11-23T06:43:01.266Z,6.39
2022-11-23T06:45:48.746Z,6.47
2022-11-23T06:48:16.347Z,6.45
2022-11-23T06:50:47.700Z,6.55
2022-11-23T06:53:19.513Z,6.37
2022-11-23T06:55:51.681Z,6.47
2022-11-23T06:58:20.890Z,6.71
2022-11-23T07:00:48.186Z,7.01
2022-11-23T07:03:24.724Z,6.98
2022-11-23T07:05:59.956Z,6.95
2022-11-23T07:08:30.076Z,6.90
2022-11-23T07:11:05.597Z,6.92
2022-11-23T07:13:33.474Z,6.78
2022-11-23T07:16:00.905Z,7.03
2022-11-23T07:18:28.433Z,7.13
2022-11-23T07:21:00.039Z,7.14
2022-11-23T07:23:27.853Z,7.00
2022-11-23T07:25:55.975Z,7.26
2022-11-23T07:28:23.483Z,7.25
2022-11-23T07:30:52.062Z,7.18
2022-11-23T07:33:21.026Z,7.27
2022-11-23T07:35:49.443Z,7.15
2022-11-23T07:38:16.754Z,7.11
2022-11-23T07:40:44.160Z,6.95
2022-11-23T07:43:25.636Z,7.07
2022-11-23T07:45:56.768Z,7.20
2022-11-23T07:48:24.713Z,7.28
2022-11-23T07:50:53.967Z,7.45
2022-11-23T07:53:21.377Z,7.38
2022-11-23T07:55:48.698Z,7.25
2022-11-23T07:58:16.025Z,7.11
2022-11-23T08:00:43.503Z,7.18
2022-11-23T08:03:30.063Z,6.85
2022-11-23T08:05:57.873Z,7.25
2022-11-23T08:08:25.240Z,7.46
2022-11-23T08:10:54.128Z,7.21
2022-11-23T08:13:22.554Z,7.43
2022-11-23T08:15:54.963Z,7.66
2022-11-23T08:18:27.434Z,7.49
2022-11-23T08:20:54.808Z,7.59
2022-11-23T08:23:22.431Z,7.58
2022-11-23T08:25:50.270Z,7.52
2022-11-23T08:28:18.000Z,7.55
2022-11-23T08:30:45.729Z,7.74
2022-11-23T08:33:14.021Z,7.70
2022-11-23T08:35:42.690Z,7.89
2022-11-23T08:38:10.820Z,8.00
2022-11-23T08:40:38.718Z,7.91
2022-11-23T08:43:06.465Z,8.05
2022-11-23T08:45:33.821Z,8.07
2022-11-23T08:48:02.647Z,8.26
2022-11-23T08:50:30.449Z,8.21
2022-11-23T08:52:58.890Z,7.97
2022-11-23T08:55:27.902Z,7.70
2022-11-23T08:57:59.288Z,7.40
2022-11-23T09:00:27.772Z,7.86
2022-11-23T09:02:58.862Z,7.55
2022-11-23T09:05:27.282Z,8.25
2022-11-23T09:07:56.079Z,7.96
2022-11-23T09:10:23.497Z,8.23
2022-11-23T09:12:50.965Z,8.37
2022-11-23T09:15:18.830Z,8.48
2022-11-23T09:17:46.274Z,8.36
2022-11-23T09:20:13.737Z,8.31
2022-11-23T09:22:41.099Z,8.27
2022-11-23T09:25:10.283Z,8.76
2022-11-23T09:27:37.715Z,8.66
2022-11-23T09:30:05.809Z,8.78
2022-11-23T09:32:33.147Z,8.90
2022-11-23T09:35:00.470Z,9.21
2022-11-23T09:37:27.895Z,9.01
2022-11-23T09:39:55.265Z,9.80
2022-11-23T09:42:41.329Z,9.70
2022-11-23T09:45:20.821Z,9.52
2022-11-23T09:48:22.305Z,9.21
2022-11-23T09:50:54.193Z,9.40
2022-11-23T09:53:30.928Z,9.11
2022-11-23T09:55:58.651Z,8.76
2022-11-23T09:58:35.238Z,9.01
2022-11-23T10:01:07.636Z,9.49
2022-11-23T10:03:41.537Z,9.11
2022-11-23T10:06:29.961Z,9.16
2022-11-23T10:09:32.920Z,9.13
2022-11-23T10:12:18.553Z,9.27
2022-11-23T10:15:12.203Z,9.12
2022-11-23T10:18:06.991Z,9.06
2022-11-23T10:20:54.003Z,8.97
2022-11-23T10:23:24.405Z,9.27
2022-11-23T10:25:52.747Z,9.10
2022-11-23T10:28:22.523Z,9.27
2022-11-23T10:31:01.368Z,9.40
2022-11-23T10:33:41.593Z,9.34
2022-11-23T10:36:11.339Z,9.14
2022-11-23T10:38:38.720Z,9.07
2022-11-23T10:41:13.557Z,9.02
2022-11-23T10:44:01.030Z,9.49
2022-11-23T10:46:34.457Z,9.19
2022-11-23T10:49:17.427Z,9.40
2022-11-23T10:52:06.712Z,9.03
2022-11-23T10:54:41.178Z,9.26
2022-11-23T10:57:44.834Z,9.33
2022-11-23T11:00:13.210Z,9.16
2022-11-23T11:02:41.798Z,9.24
2022-11-23T11:08:49.510Z,9.16
2022-11-23T11:11:25.919Z,9.42
2022-11-23T11:14:03.572Z,9.15
2022-11-23T11:16:38.295Z,9.42
2022-11-23T11:19:34.720Z,9.59
2022-11-23T11:22:24.402Z,9.53
2022-11-23T11:24:51.851Z,9.13
2022-11-23T11:27:24.366Z,8.81
2022-11-23T11:29:55.555Z,9.36
2022-11-23T11:32:33.024Z,9.39
2022-11-23T11:35:40.729Z,9.47
2022-11-23T11:38:35.783Z,9.27
2022-11-23T11:41:09.513Z,8.98
2022-11-23T11:43:44.531Z,9.39
2022-11-23T11:46:32.373Z,9.27
2022-11-23T11:49:04.544Z,9.14
2022-11-23T11:51:58.458Z,9.33
2022-11-23T11:54:37.266Z,9.40
2022-11-23T11:57:20.371Z,9.08
2022-11-23T11:59:50.443Z,8.91
2022-11-23T12:02:42.072Z,9.01
2022-11-23T12:05:25.343Z,9.25
2022-11-23T12:08:24.213Z,9.31
2022-11-23T12:11:02.041Z,9.20
2022-11-23T12:13:34.920Z,9.18
2022-11-23T12:16:20.292Z,8.94
2022-11-23T12:19:09.312Z,8.80
2022-11-23T12:21:56.160Z,8.50
2022-11-23T12:24:58.084Z,8.37
2022-11-23T12:27:48.609Z,8.75
2022-11-23T12:30:19.523Z,8.67
2022-11-23T12:33:26.347Z,8.63
2022-11-23T12:36:08.709Z,8.32
2022-11-23T12:38:45.213Z,8.40
2022-11-23T12:41:31.149Z,8.42
2022-11-23T12:44:59.893Z,8.77
2022-11-23T12:47:30.059Z,8.63
2022-11-23T12:50:21.881Z,8.46
2022-11-23T12:53:05.256Z,8.23
2022-11-23T12:55:44.727Z,8.40
2022-11-23T12:58:28.053Z,8.21
2022-11-23T13:01:00.721Z,8.26
2022-11-23T13:03:38.492Z,8.16
2022-11-23T13:06:27.533Z,8.30
2022-11-23T13:09:13.705Z,8.30
2022-11-23T13:11:56.280Z,8.51
2022-11-23T13:15:14.059Z,8.50
2022-11-23T13:17:48.833Z,8.15
2022-11-23T13:20:28.502Z,8.03
2022-11-23T13:22:58.713Z,7.82
2022-11-23T13:25:28.701Z,7.72
2022-11-23T13:28:04.895Z,7.57
2022-11-23T13:33:38.194Z,7.55
2022-11-23T13:36:13.909Z,7.43
2022-11-23T13:38:45.803Z,7.35
2022-11-23T13:42:01.598Z,7.40
2022-11-23T13:44:32.432Z,7.19
2022-11-23T13:47:12.193Z,7.39
2022-11-23T13:49:47.210Z,6.95
2022-11-23T13:52:23.714Z,7.21
2022-11-23T13:55:10.421Z,7.11
2022-11-23T13:57:39.628Z,6.99
2022-11-23T14:00:44.684Z,6.94
2022-11-23T14:03:43.283Z,6.95
2022-11-23T14:06:13.361Z,6.90
2022-11-23T14:08:41.774Z,6.92
2022-11-23T14:11:14.936Z,6.84
2022-11-23T14:13:53.655Z,6.77
2022-11-23T14:16:54.462Z,6.40
2022-11-23T14:19:35.113Z,6.93
2022-11-23T14:22:11.495Z,6.55
2022-11-23T14:25:09.004Z,6.46
2022-11-23T14:28:10.561Z,6.48
2022-11-23T14:30:53.052Z,6.32
2022-11-23T14:33:44.494Z,6.36
2022-11-23T14:36:18.049Z,6.38
2022-11-23T14:39:08.270Z,6.59
2022-11-23T14:41:36.650Z,6.23
2022-11-23T14:44:06.083Z,6.25
2022-11-23T14:46:33.530Z,6.25
2022-11-23T14:49:11.011Z,6.26
2022-11-23T14:51:43.510Z,5.89
2022-11-23T14:54:12.405Z,5.94
2022-11-23T14:56:45.320Z,6.19
2022-11-23T14:59:42.940Z,5.92
2022-11-23T15:02:22.253Z,5.88
2022-11-23T15:05:20.844Z,5.66
2022-11-23T15:08:25.843Z,5.82
2022-11-23T15:11:06.225Z,5.75
2022-11-23T15:13:44.393Z,5.90
2022-11-23T15:16:14.150Z,5.81
2022-11-23T15:18:44.665Z,5.62
2022-11-23T15:21:12.030Z,5.86
2022-11-23T15:23:47.654Z,5.79
2022-11-23T15:26:46.187Z,5.65
2022-11-23T15:29:30.599Z,5.69
2022-11-23T15:34:46.638Z,5.73
2022-11-23T15:37:14.171Z,5.38
2022-11-23T15:39:42.461Z,5.69
2022-11-23T15:42:17.670Z,5.66
2022-11-23T15:44:50.316Z,5.45
2022-11-23T15:47:28.150Z,5.44
2022-11-23T15:50:09.471Z,5.34
2022-11-23T15:52:37.861Z,5.45
2022-11-23T15:55:10.041Z,5.63
2022-11-23T15:57:39.675Z,5.32
2022-11-23T16:00:09.484Z,5.48
2022-11-23T16:02:39.870Z,5.34
2022-11-23T16:05:17.834Z,5.42
2022-11-23T16:08:00.089Z,5.46
2022-11-23T16:10:30.044Z,5.18
2022-11-23T16:12:58.646Z,5.57
2022-11-23T16:15:38.360Z,5.48
2022-11-23T16:18:12.835Z,5.58
2022-11-23T16:20:44.952Z,5.30
2022-11-23T16:23:20.004Z,5.24
2022-11-23T16:25:55.446Z,5.29
2022-11-23T16:28:32.577Z,4.80
2022-11-23T16:31:00.759Z,5.28
2022-11-23T16:33:28.999Z,5.07
2022-11-23T16:35:56.836Z,5.23
2022-11-23T16:38:24.830Z,5.27
2022-11-23T16:40:52.310Z,5.16
2022-11-23T16:43:19.649Z,5.16
2022-11-23T16:45:49.287Z,5.03
2022-11-23T16:48:25.754Z,5.37
2022-11-23T16:50:57.546Z,5.07
2022-11-23T16:53:30.176Z,5.29
2022-11-23T16:56:00.374Z,5.07
2022-11-23T16:58:32.010Z,5.23
2022-11-23T17:01:01.469Z,5.16
2022-11-23T17:03:28.915Z,5.15
2022-11-23T17:05:56.571Z,5.12
2022-11-23T17:08:24.205Z,4.90
2022-11-23T17:10:51.922Z,5.13
2022-11-23T17:13:23.972Z,5.12
2022-11-23T17:15:51.973Z,5.17
2022-11-23T17:18:19.410Z,5.13
2022-11-23T17:20:46.741Z,5.01
2022-11-23T17:23:14.021Z,4.92
2022-11-23T17:25:41.615Z,5.03
2022-11-23T17:28:16.160Z,4.79
2022-11-23T17:30:43.794Z,5.14
2022-11-23T17:33:12.173Z,5.10
2022-11-23T17:35:40.453Z,5.19
2022-11-23T17:38:17.122Z,5.02
2022-11-23T17:40:44.510Z,5.02
2022-11-23T17:43:14.246Z,5.10
2022-11-23T17:45:42.789Z,4.99
2022-11-23T17:48:13.302Z,4.95
2022-11-23T17:50:40.762Z,5.21
2022-11-23T17:53:09.864Z,5.09
2022-11-23T17:55:37.586Z,5.10
2022-11-23T17:58:06.032Z,5.36
2022-11-23T18:00:34.763Z,5.05
2022-11-23T18:03:02.429Z,4.72
2022-11-23T18:05:30.137Z,5.00
2022-11-23T18:07:57.448Z,4.95
2022-11-23T18:10:25.101Z,4.86
2022-11-23T18:12:52.461Z,5.10
2022-11-23T18:15:19.879Z,4.84
2022-11-23T18:17:47.302Z,4.91
2022-11-23T18:20:15.678Z,5.16
2022-11-23T18:22:43.185Z,4.94
2022-11-23T18:25:10.510Z,4.93
2022-11-23T18:27:37.958Z,4.95
2022-11-23T18:30:05.884Z,5.01
2022-11-23T18:32:33.176Z,4.75
2022-11-23T18:35:00.483Z,4.77
2022-11-23T18:37:27.750Z,4.58
2022-11-23T18:39:55.090Z,4.75
2022-11-23T18:42:23.216Z,4.82
2022-11-23T18:44:50.571Z,4.71
2022-11-23T18:47:17.870Z,4.71
2022-11-23T18:49:45.246Z,4.43
2022-11-23T18:52:13.936Z,4.64
2022-11-23T18:54:41.238Z,4.86
2022-11-23T18:57:08.713Z,4.76
2022-11-23T18:59:56.989Z,4.77
2022-11-23T19:02:23.438Z,4.76
2022-11-23T19:04:53.437Z,4.72
2022-11-23T19:07:26.405Z,4.77
2022-11-23T19:09:54.584Z,4.47
2022-11-23T19:12:22.099Z,4.62
2022-11-23T19:14:50.089Z,4.65
2022-11-23T19:17:17.557Z,4.66
2022-11-23T19:19:44.876Z,4.73
2022-11-23T19:22:12.307Z,4.82
2022-11-23T19:24:40.234Z,4.73
2022-11-23T19:27:07.619Z,4.73
2022-11-23T19:29:35.193Z,4.70
2022-11-23T19:32:02.655Z,4.63
2022-11-23T19:34:30.064Z,4.88
2022-11-23T19:36:57.480Z,4.75
2022-11-23T19:39:24.938Z,4.74
2022-11-23T19:41:52.299Z,5.03
2022-11-23T19:44:19.729Z,4.80
2022-11-23T19:46:47.109Z,4.91
2022-11-23T19:49:14.452Z,5.00
2022-11-23T19:51:41.724Z,4.83
2022-11-23T19:54:09.933Z,4.66
2022-11-23T19:56:37.384Z,4.99
2022-11-23T19:59:04.989Z,5.02
2022-11-23T20:01:32.879Z,4.69
2022-11-23T20:04:09.532Z,5.01
2022-11-23T20:06:42.069Z,4.99
2022-11-23T20:09:12.391Z,5.04
2022-11-23T20:11:40.837Z,5.16
2022-11-23T20:14:11.670Z,5.16
2022-11-23T20:16:39.541Z,5.01
2022-11-23T20:19:09.016Z,4.82
2022-11-23T20:21:37.244Z,4.92
2022-11-23T20:24:11.527Z,4.71
2022-11-23T20:26:39.630Z,4.98
2022-11-23T20:29:07.997Z,4.83
2022-11-23T20:31:36.952Z,4.69
2022-11-23T20:34:07.364Z,4.65
2022-11-23T20:36:38.362Z,4.69
2022-11-23T20:39:10.098Z,4.73
2022-11-23T20:41:38.600Z,4.73
2022-11-23T20:44:14.180Z,4.71
2022-11-23T20:49:30.143Z,4.47
2022-11-23T20:51:58.358Z,4.40
2022-11-23T20:54:25.635Z,4.59
2022-11-23T20:56:53.172Z,4.50
2022-11-23T20:59:20.728Z,4.32
2022-11-23T21:01:48.164Z,4.58
2022-11-23T21:04:15.524Z,4.23
2022-11-23T21:06:42.922Z,4.24
2022-11-23T21:09:11.224Z,4.21
2022-11-23T21:11:57.334Z,4.14
2022-11-23T21:14:27.981Z,4.41
2022-11-23T21:16:59.314Z,4.50
2022-11-23T21:19:29.252Z,4.26
2022-11-23T21:21:58.079Z,4.41
2022-11-23T21:24:25.873Z,4.26
2022-11-23T21:26:53.462Z,3.96
2022-11-23T21:29:20.824Z,4.23
2022-11-23T21:31:49.083Z,4.28
2022-11-23T21:34:20.473Z,4.27
2022-11-23T21:36:48.605Z,4.28
2022-11-23T21:39:16.488Z,4.36
2022-11-23T21:41:44.053Z,4.35
2022-11-23T21:44:12.358Z,4.38
2022-11-23T21:46:41.282Z,4.33
2022-11-23T21:49:09.434Z,3.90
2022-11-23T21:51:38.108Z,4.16
2022-11-23T21:54:16.019Z,4.21
2022-11-23T21:56:47.103Z,4.35
2022-11-23T21:59:14.493Z,3.59
2022-11-23T22:01:42.185Z,4.13
2022-11-23T22:04:15.477Z,4.29
2022-11-23T22:06:45.090Z,4.26
2022-11-23T22:09:13.457Z,4.39
2022-11-23T22:11:45.362Z,4.29
2022-11-23T22:14:14.772Z,4.23
2022-11-23T22:16:56.718Z,4.27
2022-11-23T22:19:23.970Z,4.28
2022-11-23T22:21:51.304Z,4.30
2022-11-23T22:24:19.607Z,4.35
2022-11-23T22:26:47.861Z,4.33
2022-11-23T22:29:15.638Z,4.26
2022-11-23T22:31:43.812Z,4.05
2022-11-23T22:34:13.138Z,4.33
2022-11-23T22:36:40.824Z,4.29
2022-11-23T22:39:08.468Z,4.33
2022-11-23T22:41:37.548Z,4.17
2022-11-23T22:44:10.132Z,4.32
2022-11-23T22:46:38.510Z,4.06
2022-11-23T22:49:06.085Z,4.01
2022-11-23T22:51:33.712Z,4.07
2022-11-23T22:54:02.167Z,4.09
2022-11-23T22:56:31.152Z,3.97
2022-11-23T22:58:59.373Z,3.89
2022-11-23T23:01:29.237Z,4.11
2022-11-23T23:03:58.779Z,3.92
2022-11-23T23:06:29.308Z,4.20
2022-11-23T23:08:59.101Z,4.05
2022-11-23T23:11:29.163Z,4.12
2022-11-23T23:13:57.065Z,4.10
2022-11-23T23:16:25.285Z,4.17
2022-11-23T23:18:55.582Z,4.21
2022-11-23T23:21:23.342Z,4.00
2022-11-23T23:23:54.208Z,4.12
2022-11-23T23:26:26.109Z,4.27
2022-11-23T23:28:55.894Z,4.11
2022-11-23T23:31:24.109Z,4.27
2022-11-23T23:33:53.564Z,4.15
2022-11-23T23:36:22.610Z,4.26
2022-11-23T23:38:50.990Z,4.32
2022-11-23T23:41:18.869Z,4.21
2022-11-23T23:43:48.174Z,4.30
2022-11-23T23:46:17.386Z,4.44
2022-11-23T23:48:45.005Z,4.31
2022-11-23T23:51:24.830Z,4.37
2022-11-23T23:53:52.753Z,4.21
2022-11-23T23:56:26.176Z,4.33
2022-11-23T23:58:56.605Z,4.38
